Time;durP1;ratioP1;P1;durP2;ratioP2;P2;SDS_P1;SDS_P2;PMS_P1;PMS_P2;Temp;Humidity;BMP_temperature;BMP_pressure;BME280_temperature;BME280_humidity;BME280_pressure;Samples;Min_cycle;Max_cycle;Signal;HPM_P1;HPM_P2
2023/08/06 00:00:49;;;;;;;5.23;3.67;;;17.00;99.90;;;;;;5017067;28;20458;-81
2023/08/06 00:03:16;;;;;;;5.40;3.80;;;17.00;99.90;;;;;;5006187;28;20967;-81
2023/08/06 00:05:43;;;;;;;5.67;3.20;;;17.10;99.90;;;;;;5012951;28;20476;-82
2023/08/06 00:08:10;;;;;;;4.53;3.70;;;17.00;99.90;;;;;;5018110;28;20510;-82
2023/08/06 00:10:40;;;;;;;5.37;3.57;;;17.00;99.90;;;;;;5008764;28;20449;-78
2023/08/06 00:13:06;;;;;;;5.80;3.50;;;17.00;99.90;;;;;;5027061;28;20512;-79
2023/08/06 00:15:33;;;;;;;3.60;3.17;;;17.00;99.90;;;;;;5016105;28;20490;-79
2023/08/06 00:18:00;;;;;;;5.00;3.83;;;17.00;99.90;;;;;;5017415;28;20539;-78
2023/08/06 00:20:27;;;;;;;5.10;3.80;;;17.00;99.90;;;;;;5014820;28;20447;-82
2023/08/06 00:22:54;;;;;;;4.37;3.97;;;17.00;99.90;;;;;;5014735;28;20438;-81
2023/08/06 00:25:20;;;;;;;3.80;3.40;;;17.00;99.90;;;;;;5015817;28;21047;-80
2023/08/06 00:27:48;;;;;;;5.93;3.30;;;17.00;99.90;;;;;;5015124;28;20561;-82
2023/08/06 00:30:15;;;;;;;6.70;3.87;;;16.90;99.90;;;;;;5014970;28;20459;-80
2023/08/06 00:32:42;;;;;;;4.30;3.70;;;17.00;99.90;;;;;;5015491;28;20872;-80
2023/08/06 00:35:09;;;;;;;4.07;3.40;;;16.90;99.90;;;;;;5014051;28;20523;-80
2023/08/06 00:37:36;;;;;;;5.70;4.37;;;16.90;99.90;;;;;;5015644;28;20445;-81
2023/08/06 00:40:03;;;;;;;3.67;3.33;;;16.90;99.90;;;;;;5015754;28;20449;-79
2023/08/06 00:42:30;;;;;;;3.80;3.40;;;16.90;99.90;;;;;;5015766;28;20452;-82
2023/08/06 00:44:58;;;;;;;5.07;2.77;;;16.90;99.90;;;;;;5015954;28;20473;-82
2023/08/06 00:47:25;;;;;;;3.83;2.97;;;16.90;99.90;;;;;;5016122;28;20546;-82
2023/08/06 00:49:52;;;;;;;5.63;3.60;;;16.90;99.90;;;;;;5015727;28;20653;-81
2023/08/06 00:52:19;;;;;;;4.17;3.40;;;16.90;99.90;;;;;;5015988;28;20467;-82
2023/08/06 00:54:46;;;;;;;3.77;3.30;;;16.90;99.90;;;;;;5015472;28;20491;-82
2023/08/06 00:57:13;;;;;;;3.20;2.90;;;16.80;99.90;;;;;;5015729;28;20454;-81
2023/08/06 00:59:40;;;;;;;5.33;3.47;;;16.80;99.90;;;;;;5015817;28;20456;-81
2023/08/06 01:02:08;;;;;;;4.47;2.93;;;16.80;99.90;;;;;;5016957;28;20452;-82
2023/08/06 01:04:35;;;;;;;8.07;3.63;;;16.80;99.90;;;;;;5016440;28;20477;-82
2023/08/06 01:07:11;;;;;;;4.03;3.40;;;16.80;99.90;;;;;;5016788;28;20835;-82
2023/08/06 01:09:46;;;;;;;5.00;3.67;;;16.80;99.90;;;;;;5027725;28;20517;-79
2023/08/06 01:12:21;;;;;;;4.00;3.53;;;16.80;99.90;;;;;;5024363;28;20434;-81
2023/08/06 01:14:55;;;;;;;3.60;2.83;;;16.80;99.90;;;;;;5013591;28;20555;-80
2023/08/06 01:17:26;;;;;;;5.20;3.07;;;16.70;99.90;;;;;;5013362;28;20447;-81
2023/08/06 01:19:53;;;;;;;4.33;2.93;;;16.70;99.90;;;;;;5013646;28;20456;-80
2023/08/06 01:22:21;;;;;;;4.53;3.00;;;16.70;99.90;;;;;;5013728;28;20457;-81
2023/08/06 01:24:51;;;;;;;4.53;3.27;;;16.70;99.90;;;;;;5013241;28;20463;-80
2023/08/06 01:27:28;;;;;;;5.10;3.60;;;16.70;99.90;;;;;;5012792;28;20522;-80
2023/08/06 01:30:02;;;;;;;6.10;3.13;;;16.70;99.90;;;;;;5013020;28;20454;-81
2023/08/06 01:32:32;;;;;;;3.47;2.93;;;16.70;99.90;;;;;;5013223;28;20449;-80
2023/08/06 01:35:02;;;;;;;3.67;3.30;;;16.70;99.90;;;;;;5013486;28;20495;-81
2023/08/06 01:37:30;;;;;;;5.40;3.67;;;16.70;99.90;;;;;;5013321;28;20835;-80
2023/08/06 01:39:57;;;;;;;4.73;3.50;;;16.70;99.90;;;;;;5013118;28;20441;-81
2023/08/06 01:42:24;;;;;;;4.37;3.27;;;16.70;99.90;;;;;;5013596;28;20461;-80
2023/08/06 01:44:51;;;;;;;3.87;3.47;;;16.70;99.90;;;;;;5013440;28;20477;-80
2023/08/06 01:47:18;;;;;;;3.60;3.30;;;16.70;99.90;;;;;;5016467;28;20451;-80
2023/08/06 01:49:44;;;;;;;4.00;3.47;;;16.70;99.90;;;;;;5022655;28;20938;-81
2023/08/06 01:52:11;;;;;;;4.30;2.90;;;16.70;99.90;;;;;;5026185;28;20459;-81
2023/08/06 01:54:39;;;;;;;3.63;3.30;;;16.70;99.90;;;;;;5016797;28;20493;-82
2023/08/06 01:57:06;;;;;;;3.40;2.43;;;16.80;99.90;;;;;;5017366;28;20463;-81
2023/08/06 01:59:33;;;;;;;4.93;3.30;;;16.80;99.90;;;;;;5025879;28;20458;-81
2023/08/06 02:02:00;;;;;;;5.00;3.40;;;16.80;99.90;;;;;;5028706;28;20447;-82
2023/08/06 02:04:27;;;;;;;5.77;3.60;;;16.80;99.90;;;;;;5036016;28;20466;-80
2023/08/06 02:06:54;;;;;;;3.63;3.00;;;16.70;99.90;;;;;;5036498;28;20481;-82
2023/08/06 02:09:20;;;;;;;5.17;3.10;;;16.70;99.90;;;;;;5037022;28;20458;-82
2023/08/06 02:11:48;;;;;;;3.23;2.93;;;16.80;99.90;;;;;;5036554;28;20455;-80
2023/08/06 02:14:15;;;;;;;4.13;3.00;;;16.80;99.90;;;;;;5036558;28;20457;-80
2023/08/06 02:16:42;;;;;;;4.23;3.13;;;16.80;99.90;;;;;;5036035;28;20444;-80
2023/08/06 02:19:09;;;;;;;4.80;4.10;;;16.80;99.90;;;;;;5036921;28;20951;-80
2023/08/06 02:21:36;;;;;;;5.70;3.97;;;16.80;99.90;;;;;;5036128;28;20464;-81
2023/08/06 02:24:03;;;;;;;4.87;3.77;;;16.80;99.90;;;;;;5036854;28;20448;-78
2023/08/06 02:26:29;;;;;;;3.97;3.57;;;16.80;99.90;;;;;;5036588;28;20463;-80
2023/08/06 02:28:57;;;;;;;5.00;3.10;;;16.80;99.90;;;;;;5036215;28;20461;-81
2023/08/06 02:31:24;;;;;;;6.03;3.40;;;16.70;99.90;;;;;;5036782;28;20446;-80
2023/08/06 02:33:51;;;;;;;4.03;3.00;;;16.80;99.90;;;;;;5036874;28;20460;-81
2023/08/06 02:36:18;;;;;;;3.30;2.93;;;16.80;99.90;;;;;;5036291;28;20486;-80
2023/08/06 02:38:45;;;;;;;4.50;3.80;;;16.80;99.90;;;;;;5036553;28;20478;-81
2023/08/06 02:41:12;;;;;;;4.00;2.97;;;16.70;99.90;;;;;;5036838;28;20463;-82
2023/08/06 02:43:38;;;;;;;3.60;2.50;;;16.70;99.90;;;;;;5037393;28;20448;-82
2023/08/06 02:46:07;;;;;;;3.80;3.40;;;16.70;99.90;;;;;;5036365;28;20465;-80
2023/08/06 02:48:33;;;;;;;3.77;3.13;;;16.70;99.90;;;;;;5037537;28;20458;-80
2023/08/06 02:51:01;;;;;;;3.87;3.10;;;16.70;99.90;;;;;;5037127;28;20660;-82
2023/08/06 02:53:27;;;;;;;4.60;3.40;;;16.70;99.90;;;;;;5037092;28;20459;-82
2023/08/06 02:55:55;;;;;;;3.73;3.33;;;16.70;99.90;;;;;;5036963;28;20494;-82
2023/08/06 02:58:22;;;;;;;4.60;2.80;;;16.70;99.90;;;;;;5036171;28;20497;-82
2023/08/06 03:01:00;;;;;;;6.73;3.13;;;16.60;99.90;;;;;;5037720;28;20532;-82
2023/08/06 03:03:28;;;;;;;3.50;3.20;;;16.60;99.90;;;;;;5037313;28;20452;-81
2023/08/06 03:05:55;;;;;;;3.10;2.73;;;16.60;99.90;;;;;;5037789;28;20555;-81
2023/08/06 03:08:22;;;;;;;3.27;2.97;;;16.60;99.90;;;;;;5037932;28;20463;-82
2023/08/06 03:10:49;;;;;;;3.83;3.17;;;16.50;99.90;;;;;;5038075;28;20482;-82
2023/08/06 03:13:16;;;;;;;4.70;3.47;;;16.50;99.90;;;;;;5037842;28;20451;-81
2023/08/06 03:15:43;;;;;;;4.13;3.73;;;16.50;99.90;;;;;;5038135;28;20484;-82
2023/08/06 03:18:10;;;;;;;3.30;3.00;;;16.50;99.90;;;;;;5046901;28;20485;-78
2023/08/06 03:20:38;;;;;;;3.50;3.20;;;16.50;99.90;;;;;;5045707;28;20457;-82
2023/08/06 03:23:05;;;;;;;3.10;2.80;;;16.50;99.90;;;;;;5038317;28;20456;-81
2023/08/06 03:25:31;;;;;;;3.60;3.00;;;16.40;99.90;;;;;;5037967;28;20542;-80
2023/08/06 03:27:58;;;;;;;4.70;2.70;;;16.40;99.90;;;;;;5038551;28;20448;-82
2023/08/06 03:30:25;;;;;;;3.73;3.33;;;16.40;99.90;;;;;;5038478;28;20453;-82
2023/08/06 03:32:52;;;;;;;5.77;3.17;;;16.40;99.90;;;;;;5043266;28;20609;-82
2023/08/06 03:35:19;;;;;;;3.50;3.20;;;16.40;99.90;;;;;;5050562;28;20490;-79
2023/08/06 03:37:48;;;;;;;3.80;3.20;;;16.40;99.90;;;;;;5049663;28;20450;-78
2023/08/06 03:40:15;;;;;;;3.40;3.10;;;16.40;99.90;;;;;;5037945;28;20502;-80
2023/08/06 03:42:41;;;;;;;4.37;2.90;;;16.40;99.90;;;;;;5036306;28;20542;-80
2023/08/06 03:45:09;;;;;;;3.80;3.37;;;16.30;99.90;;;;;;5035956;28;20501;-80
2023/08/06 03:47:36;;;;;;;3.13;2.83;;;16.40;99.90;;;;;;5036145;28;20445;-81
2023/08/06 03:50:03;;;;;;;3.90;3.53;;;16.40;99.90;;;;;;5035887;28;20448;-82
2023/08/06 03:52:30;;;;;;;5.67;3.07;;;16.40;99.90;;;;;;5036037;28;20543;-80
2023/08/06 03:54:58;;;;;;;5.40;2.63;;;16.40;99.90;;;;;;5035914;28;20469;-81
2023/08/06 03:57:25;;;;;;;3.77;3.40;;;16.40;99.90;;;;;;5035818;28;20835;-81
2023/08/06 03:59:52;;;;;;;4.13;3.07;;;16.40;99.90;;;;;;5036277;28;20829;-80
2023/08/06 04:02:18;;;;;;;4.23;3.07;;;16.40;99.90;;;;;;5035873;28;20520;-81
2023/08/06 04:04:45;;;;;;;8.10;3.40;;;16.40;99.90;;;;;;5035116;28;20483;-79
2023/08/06 04:07:12;;;;;;;5.93;3.10;;;16.40;99.90;;;;;;5034718;28;20451;-79
2023/08/06 04:09:55;;;;;;;6.80;3.73;;;16.40;99.90;;;;;;5035882;28;20453;-81
2023/08/06 04:12:23;;;;;;;3.97;3.27;;;16.40;99.90;;;;;;5035860;28;20978;-81
2023/08/06 04:14:50;;;;;;;5.53;3.17;;;16.40;99.90;;;;;;5036224;28;20475;-80
2023/08/06 04:17:20;;;;;;;3.70;2.90;;;16.40;99.90;;;;;;5035543;28;20525;-79
2023/08/06 04:19:47;;;;;;;3.27;2.97;;;16.40;99.90;;;;;;5035669;28;20491;-79
2023/08/06 04:22:14;;;;;;;3.30;3.00;;;16.30;99.90;;;;;;5035225;28;20452;-82
2023/08/06 04:24:41;;;;;;;8.33;3.93;;;16.40;99.90;;;;;;5034903;28;20507;-80
2023/08/06 04:27:08;;;;;;;5.13;2.97;;;16.40;99.90;;;;;;5035313;28;20450;-82
2023/08/06 04:29:37;;;;;;;4.90;2.90;;;16.40;99.90;;;;;;5035590;28;20542;-81
2023/08/06 04:32:06;;;;;;;3.30;3.00;;;16.40;99.90;;;;;;5035760;28;20449;-80
2023/08/06 04:34:33;;;;;;;3.20;2.83;;;16.40;99.90;;;;;;5035333;28;20481;-80
2023/08/06 04:37:00;;;;;;;6.50;3.57;;;16.40;99.90;;;;;;5035644;28;20494;-81
2023/08/06 04:39:27;;;;;;;8.07;3.00;;;16.50;99.90;;;;;;5034707;28;20440;-79
2023/08/06 04:41:54;;;;;;;3.30;2.57;;;16.40;99.90;;;;;;5037935;28;20450;-80
2023/08/06 04:44:22;;;;;;;4.50;3.00;;;16.40;99.90;;;;;;5038820;28;20469;-80
2023/08/06 04:46:50;;;;;;;4.40;3.10;;;16.50;99.90;;;;;;5040187;28;20448;-80
2023/08/06 04:49:17;;;;;;;3.80;3.43;;;16.40;99.90;;;;;;5039197;28;20483;-81
2023/08/06 04:51:43;;;;;;;3.13;2.80;;;16.40;99.90;;;;;;5038129;28;20452;-80
2023/08/06 04:54:11;;;;;;;4.13;2.90;;;16.40;99.90;;;;;;5038969;28;20450;-81
2023/08/06 04:56:37;;;;;;;5.07;2.77;;;16.40;99.90;;;;;;5035021;28;20492;-81
2023/08/06 04:59:04;;;;;;;3.17;2.43;;;16.40;99.90;;;;;;5034258;28;20440;-80
2023/08/06 05:01:31;;;;;;;5.43;2.43;;;16.40;99.90;;;;;;5034515;28;20445;-80
2023/08/06 05:03:59;;;;;;;4.40;2.40;;;16.40;99.90;;;;;;5034684;28;20454;-79
2023/08/06 05:06:26;;;;;;;4.10;2.77;;;16.40;99.90;;;;;;5079324;22;20904;-82
2023/08/06 05:08:53;;;;;;;3.43;2.63;;;16.30;99.90;;;;;;5067761;28;20442;-82
2023/08/06 05:11:22;;;;;;;5.57;3.00;;;16.40;99.90;;;;;;5069243;28;20435;-82
2023/08/06 05:13:49;;;;;;;5.13;2.70;;;16.30;99.90;;;;;;5077952;28;20537;-82
2023/08/06 05:16:15;;;;;;;3.70;2.20;;;16.30;99.90;;;;;;5077838;28;20576;-83
2023/08/06 05:18:42;;;;;;;4.00;2.40;;;16.40;99.90;;;;;;5068744;28;20495;-82
2023/08/06 05:21:11;;;;;;;3.20;2.27;;;16.40;99.90;;;;;;5068261;28;20457;-81
2023/08/06 05:23:37;;;;;;;5.00;2.47;;;16.40;99.90;;;;;;5052424;28;20452;-83
2023/08/06 05:26:10;;;;;;;4.67;2.60;;;16.50;99.90;;;;;;5053773;28;20513;-81
2023/08/06 05:28:42;;;;;;;3.30;2.60;;;16.50;99.90;;;;;;5049400;28;20475;-81
2023/08/06 05:31:09;;;;;;;2.97;2.67;;;16.50;99.90;;;;;;5051119;28;20440;-81
2023/08/06 05:33:36;;;;;;;4.23;2.73;;;16.60;99.90;;;;;;5055502;28;20450;-83
2023/08/06 05:36:02;;;;;;;4.70;3.00;;;16.60;99.90;;;;;;5059662;28;20488;-82
2023/08/06 05:38:31;;;;;;;3.10;2.57;;;16.60;99.90;;;;;;5060086;28;20512;-80
2023/08/06 05:40:58;;;;;;;3.70;2.53;;;16.70;99.90;;;;;;5051866;28;20442;-84
2023/08/06 05:43:24;;;;;;;5.60;2.80;;;16.70;99.90;;;;;;5057551;28;20451;-83
2023/08/06 05:45:51;;;;;;;2.93;2.40;;;16.70;99.90;;;;;;5040110;28;20551;-81
2023/08/06 05:48:18;;;;;;;5.70;2.60;;;16.80;99.90;;;;;;5042414;28;20458;-82
2023/08/06 05:50:45;;;;;;;3.20;2.80;;;16.80;99.90;;;;;;5039999;28;20548;-81
2023/08/06 05:53:12;;;;;;;3.40;2.63;;;16.90;99.90;;;;;;5040897;28;20460;-81
2023/08/06 05:55:41;;;;;;;3.33;2.53;;;17.00;99.90;;;;;;5039947;28;20482;-81
2023/08/06 05:58:08;;;;;;;4.47;2.47;;;17.00;99.90;;;;;;5041465;28;20539;-81
2023/08/06 06:00:35;;;;;;;3.43;2.33;;;17.10;99.90;;;;;;5043433;28;20944;-82
2023/08/06 06:03:02;;;;;;;3.53;2.60;;;17.10;99.90;;;;;;5049819;28;20551;-81
2023/08/06 06:05:28;;;;;;;2.87;2.30;;;17.10;99.90;;;;;;5052534;28;20500;-83
2023/08/06 06:07:55;;;;;;;2.87;2.47;;;17.20;99.90;;;;;;5050485;28;20900;-84
2023/08/06 06:10:22;;;;;;;2.93;2.33;;;17.20;99.90;;;;;;5053951;28;20458;-81
2023/08/06 06:12:50;;;;;;;2.93;2.33;;;17.30;99.90;;;;;;5050985;28;20476;-82
2023/08/06 06:15:17;;;;;;;3.07;2.13;;;17.30;99.90;;;;;;5049825;28;20526;-81
2023/08/06 06:17:44;;;;;;;3.70;2.70;;;17.30;99.90;;;;;;5046223;28;20492;-81
2023/08/06 06:20:11;;;;;;;11.23;3.23;;;17.40;99.90;;;;;;5054958;28;20454;-81
2023/08/06 06:22:38;;;;;;;2.80;2.30;;;17.40;99.90;;;;;;5050228;28;20447;-81
2023/08/06 06:25:06;;;;;;;5.53;3.13;;;17.50;99.90;;;;;;5050124;28;20543;-80
2023/08/06 06:27:33;;;;;;;3.83;3.30;;;17.50;99.90;;;;;;5056036;28;20542;-81
2023/08/06 06:30:01;;;;;;;4.03;2.73;;;17.60;99.90;;;;;;5056330;28;20976;-84
2023/08/06 06:32:28;;;;;;;2.90;2.07;;;17.60;99.90;;;;;;5058457;28;20456;-84
2023/08/06 06:34:55;;;;;;;2.93;2.30;;;17.60;99.90;;;;;;5059714;28;20527;-83
2023/08/06 06:37:22;;;;;;;3.53;2.10;;;17.70;99.90;;;;;;5059535;28;20479;-82
2023/08/06 06:39:49;;;;;;;5.13;3.00;;;17.80;99.90;;;;;;5059236;28;20473;-83
2023/08/06 06:42:16;;;;;;;3.80;2.33;;;17.80;99.90;;;;;;5058379;28;20903;-81
2023/08/06 06:44:43;;;;;;;2.50;2.20;;;17.80;99.90;;;;;;5068734;28;20519;-82
2023/08/06 06:47:11;;;;;;;5.07;2.70;;;17.90;99.90;;;;;;5059016;28;20461;-81
2023/08/06 06:49:37;;;;;;;8.80;2.50;;;17.90;99.90;;;;;;5060999;28;20799;-82
2023/08/06 06:52:05;;;;;;;2.83;1.97;;;17.90;99.90;;;;;;5061350;28;20450;-79
2023/08/06 06:54:32;;;;;;;2.50;1.83;;;17.90;99.90;;;;;;5059617;28;20486;-80
2023/08/06 06:56:59;;;;;;;3.10;2.43;;;18.00;99.90;;;;;;5060361;28;21117;-82
2023/08/06 06:59:26;;;;;;;4.60;1.80;;;18.00;99.90;;;;;;5059275;28;20452;-82
2023/08/06 07:01:52;;;;;;;5.23;2.33;;;18.10;99.90;;;;;;5054140;28;20456;-80
2023/08/06 07:04:21;;;;;;;3.60;1.97;;;18.10;99.90;;;;;;5047359;28;20448;-83
2023/08/06 07:06:48;;;;;;;3.90;2.37;;;18.10;99.90;;;;;;5038186;28;20500;-82
2023/08/06 07:09:15;;;;;;;4.77;2.67;;;18.20;99.90;;;;;;5038261;28;20445;-80
2023/08/06 07:11:43;;;;;;;4.53;2.43;;;18.20;99.90;;;;;;5038335;28;20463;-81
2023/08/06 07:14:10;;;;;;;4.57;2.10;;;18.30;99.90;;;;;;5039064;28;20877;-81
2023/08/06 07:16:37;;;;;;;3.70;2.10;;;18.30;99.90;;;;;;5049640;28;20484;-80
2023/08/06 07:19:05;;;;;;;2.70;2.30;;;18.40;99.90;;;;;;5043740;28;20440;-80
2023/08/06 07:21:33;;;;;;;4.33;2.10;;;18.50;99.90;;;;;;5044663;28;20459;-81
2023/08/06 07:24:00;;;;;;;4.50;2.07;;;18.40;99.90;;;;;;5058119;28;20455;-81
2023/08/06 07:26:27;;;;;;;3.00;2.27;;;18.40;99.90;;;;;;5056643;28;20464;-80
2023/08/06 07:28:54;;;;;;;4.50;2.30;;;18.40;99.90;;;;;;5057923;28;20454;-80
2023/08/06 07:31:20;;;;;;;3.10;2.30;;;18.50;99.90;;;;;;5058014;28;20558;-80
2023/08/06 07:33:47;;;;;;;3.00;2.40;;;18.50;99.90;;;;;;5057211;28;20452;-80
2023/08/06 07:36:15;;;;;;;3.13;2.13;;;18.50;99.90;;;;;;5057886;28;20517;-80
2023/08/06 07:38:44;;;;;;;7.53;2.73;;;18.60;99.90;;;;;;5057979;28;20448;-79
2023/08/06 07:41:10;;;;;;;3.50;2.50;;;18.60;99.90;;;;;;5058576;28;20482;-80
2023/08/06 07:43:37;;;;;;;2.60;2.20;;;18.60;99.90;;;;;;5056814;28;21019;-82
2023/08/06 07:46:05;;;;;;;3.77;2.30;;;18.60;99.90;;;;;;5057739;28;20474;-80
2023/08/06 07:48:32;;;;;;;2.43;1.93;;;18.50;99.90;;;;;;5057069;28;20482;-81
2023/08/06 07:50:59;;;;;;;5.07;2.83;;;18.50;99.90;;;;;;5057169;28;20450;-80
2023/08/06 07:53:29;;;;;;;3.40;2.57;;;18.50;99.90;;;;;;5056602;28;20454;-82
2023/08/06 07:55:57;;;;;;;3.73;2.30;;;18.40;99.90;;;;;;5056243;28;20482;-80
2023/08/06 07:58:26;;;;;;;3.00;2.20;;;18.40;99.90;;;;;;5045295;28;20524;-80
2023/08/06 08:00:53;;;;;;;4.03;1.90;;;18.40;99.90;;;;;;5036227;28;20461;-79
2023/08/06 08:03:20;;;;;;;4.97;2.27;;;18.40;99.90;;;;;;5036800;28;20452;-80
2023/08/06 08:05:47;;;;;;;4.37;2.00;;;18.40;99.90;;;;;;5037010;28;20480;-81
2023/08/06 08:08:14;;;;;;;3.30;2.07;;;18.40;99.90;;;;;;5043487;28;20452;-80
2023/08/06 08:10:41;;;;;;;3.80;2.90;;;18.50;99.90;;;;;;5050749;28;20640;-80
2023/08/06 08:13:10;;;;;;;3.47;2.70;;;18.50;99.90;;;;;;5039188;28;20458;-80
2023/08/06 08:15:36;;;;;;;5.23;2.97;;;18.60;99.90;;;;;;5038927;28;20546;-82
2023/08/06 08:18:03;;;;;;;3.40;1.90;;;18.70;99.90;;;;;;5042152;28;20480;-82
2023/08/06 08:20:31;;;;;;;5.47;2.23;;;18.70;99.90;;;;;;5058201;28;20456;-80
2023/08/06 08:23:00;;;;;;;4.30;2.60;;;18.80;99.90;;;;;;5056867;28;20879;-81
2023/08/06 08:25:27;;;;;;;3.10;2.10;;;18.90;99.90;;;;;;5047500;28;20469;-81
2023/08/06 08:27:54;;;;;;;3.40;2.50;;;19.00;99.90;;;;;;5038784;28;20456;-81
2023/08/06 08:30:24;;;;;;;2.67;2.23;;;19.10;99.90;;;;;;5049149;28;20452;-80
2023/08/06 08:32:51;;;;;;;3.50;2.93;;;19.10;99.90;;;;;;5048581;28;20460;-81
2023/08/06 08:35:18;;;;;;;4.97;2.07;;;19.20;99.90;;;;;;5036004;28;20563;-80
2023/08/06 08:37:45;;;;;;;3.33;2.30;;;19.30;99.90;;;;;;5036569;28;20481;-81
2023/08/06 08:40:12;;;;;;;4.67;2.30;;;19.30;99.90;;;;;;5052455;28;20458;-81
2023/08/06 08:42:39;;;;;;;4.47;2.93;;;19.30;99.90;;;;;;5057415;28;20491;-82
2023/08/06 08:45:12;;;;;;;2.90;2.33;;;19.30;99.90;;;;;;5040314;28;20472;-83
2023/08/06 08:47:41;;;;;;;4.30;2.90;;;19.40;99.90;;;;;;5055602;28;20467;-81
2023/08/06 08:50:10;;;;;;;2.83;2.13;;;19.40;99.90;;;;;;5036666;28;20437;-80
2023/08/06 08:52:39;;;;;;;4.07;2.27;;;19.40;99.90;;;;;;5040596;28;20467;-81
2023/08/06 08:55:09;;;;;;;4.50;2.57;;;19.40;99.90;;;;;;5035759;28;20932;-81
2023/08/06 08:57:35;;;;;;;3.67;2.20;;;19.40;99.90;;;;;;5055242;28;20578;-81
2023/08/06 09:00:02;;;;;;;3.17;2.50;;;19.50;99.90;;;;;;5071389;28;20453;-80
2023/08/06 09:02:30;;;;;;;4.30;2.90;;;19.60;99.90;;;;;;5063322;28;20538;-80
2023/08/06 09:05:02;;;;;;;4.17;2.57;;;19.70;99.90;;;;;;5059943;28;20452;-81
2023/08/06 09:07:33;;;;;;;3.60;2.10;;;19.80;99.90;;;;;;5051030;28;20547;-80
2023/08/06 09:10:03;;;;;;;4.33;2.63;;;19.90;99.90;;;;;;5045789;28;20448;-80
2023/08/06 09:12:30;;;;;;;4.53;2.83;;;20.00;99.90;;;;;;5059817;28;20440;-80
2023/08/06 09:14:57;;;;;;;4.97;3.10;;;19.90;99.90;;;;;;5060633;28;20450;-83
2023/08/06 09:17:24;;;;;;;3.10;2.50;;;19.90;99.90;;;;;;5048028;28;20472;-81
2023/08/06 09:19:51;;;;;;;3.10;2.53;;;19.80;99.90;;;;;;5048256;28;20478;-81
2023/08/06 09:22:19;;;;;;;3.30;2.77;;;19.70;99.90;;;;;;5039933;28;20519;-80
2023/08/06 09:24:46;;;;;;;3.90;2.60;;;19.60;99.90;;;;;;5039946;28;20914;-83
2023/08/06 09:27:14;;;;;;;3.20;2.60;;;19.50;99.90;;;;;;5039446;28;20447;-81
2023/08/06 09:29:44;;;;;;;4.70;3.50;;;19.50;99.90;;;;;;5041904;28;20866;-80
2023/08/06 09:32:12;;;;;;;3.30;3.00;;;19.40;99.90;;;;;;5039389;28;20498;-81
2023/08/06 09:34:40;;;;;;;5.90;4.20;;;19.30;99.90;;;;;;5049755;28;20546;-79
2023/08/06 09:37:10;;;;;;;7.47;3.90;;;19.20;99.90;;;;;;5046156;28;20482;-81
2023/08/06 09:39:40;;;;;;;4.23;3.83;;;19.20;99.90;;;;;;5059375;28;20655;-82
2023/08/06 09:42:07;;;;;;;3.83;3.47;;;19.10;99.90;;;;;;5079541;28;20475;-81
2023/08/06 09:44:34;;;;;;;4.30;2.80;;;19.10;99.90;;;;;;5078755;28;20527;-81
2023/08/06 09:47:03;;;;;;;8.10;3.40;;;19.10;99.90;;;;;;5064577;28;20463;-82
2023/08/06 09:49:42;;;;;;;3.93;3.30;;;19.00;99.90;;;;;;5059007;28;20448;-80
2023/08/06 09:52:12;;;;;;;5.67;4.40;;;19.00;99.90;;;;;;5062939;28;20452;-81
2023/08/06 09:54:40;;;;;;;4.60;4.00;;;19.00;99.90;;;;;;5057575;28;20470;-83
2023/08/06 09:57:07;;;;;;;4.57;3.83;;;19.00;99.90;;;;;;5049047;28;20490;-82
2023/08/06 09:59:35;;;;;;;5.60;4.43;;;19.10;99.90;;;;;;5062103;28;20931;-81
2023/08/06 10:02:03;;;;;;;4.17;3.87;;;19.20;99.90;;;;;;5073928;28;21033;-82
2023/08/06 10:04:30;;;;;;;4.50;3.90;;;19.20;99.90;;;;;;5055923;28;20520;-81
2023/08/06 10:06:59;;;;;;;5.90;3.60;;;19.30;99.90;;;;;;5058052;28;20906;-83
2023/08/06 10:09:25;;;;;;;4.90;4.00;;;19.30;99.90;;;;;;5051307;28;20515;-83
2023/08/06 10:11:54;;;;;;;3.80;3.50;;;19.40;99.90;;;;;;5049455;28;20479;-81
2023/08/06 10:14:26;;;;;;;5.80;4.07;;;19.40;99.90;;;;;;5056797;28;20480;-82
2023/08/06 10:16:54;;;;;;;5.43;3.73;;;19.40;99.90;;;;;;5050939;28;20483;-81
2023/08/06 10:19:21;;;;;;;4.63;4.17;;;19.50;99.90;;;;;;5063390;28;20453;-82
2023/08/06 10:22:09;;;;;;;4.37;3.80;;;19.60;99.90;;;;;;5079006;28;20529;-81
2023/08/06 10:24:47;;;;;;;3.60;3.30;;;19.60;99.90;;;;;;5062369;28;20451;-84
2023/08/06 10:27:21;;;;;;;3.50;3.10;;;19.80;99.90;;;;;;5058450;28;20905;-81
2023/08/06 10:29:50;;;;;;;4.47;3.40;;;19.80;99.90;;;;;;5058570;28;20491;-84
2023/08/06 10:32:19;;;;;;;4.37;3.97;;;19.90;99.90;;;;;;5048203;28;20548;-81
2023/08/06 10:34:58;;;;;;;6.13;3.73;;;20.00;99.90;;;;;;5048883;28;20905;-82
2023/08/06 10:37:25;;;;;;;4.70;3.50;;;20.10;99.90;;;;;;5047858;28;20492;-81
2023/08/06 10:39:53;;;;;;;4.93;3.70;;;20.20;99.90;;;;;;5047018;28;20441;-83
2023/08/06 10:42:28;;;;;;;4.83;3.43;;;20.30;99.90;;;;;;5046714;28;21040;-83
2023/08/06 10:45:19;;;;;;;3.73;3.33;;;20.30;99.90;;;;;;5052325;28;20547;-82
2023/08/06 10:47:47;;;;;;;4.70;3.27;;;20.40;99.90;;;;;;5031692;28;20463;-81
2023/08/06 10:50:16;;;;;;;3.13;2.83;;;20.50;99.90;;;;;;5044475;28;20445;-81
2023/08/06 10:52:44;;;;;;;3.70;3.20;;;20.50;99.90;;;;;;5046696;28;20951;-82
2023/08/06 10:55:13;;;;;;;4.83;3.67;;;20.60;28.60;;;;;;5052459;28;21000;-80
2023/08/06 10:57:42;;;;;;;4.63;3.53;;;20.70;1.00;;;;;;5051975;28;20587;-82
2023/08/06 11:00:12;;;;;;;3.40;3.10;;;20.80;1.00;;;;;;5039699;28;20453;-82
2023/08/06 11:02:39;;;;;;;4.33;3.93;;;20.70;1.00;;;;;;5045435;28;20445;-81
2023/08/06 11:05:07;;;;;;;4.00;3.37;;;20.80;39.20;;;;;;5040693;28;20487;-79
2023/08/06 11:07:34;;;;;;;6.07;3.70;;;20.70;2.80;;;;;;5063922;22;20507;-83
2023/08/06 11:10:05;;;;;;;4.50;4.10;;;20.80;34.20;;;;;;5043559;28;20811;-81
2023/08/06 11:12:32;;;;;;;5.73;3.73;;;20.70;57.40;;;;;;5051587;28;20454;-82
2023/08/06 11:15:01;;;;;;;4.40;3.70;;;20.60;8.20;;;;;;5053613;28;20446;-83
2023/08/06 11:17:30;;;;;;;3.90;3.50;;;20.50;1.00;;;;;;5046923;28;20484;-80
2023/08/06 11:19:59;;;;;;;4.70;3.93;;;20.50;52.20;;;;;;5047573;28;20839;-81
2023/08/06 11:22:27;;;;;;;4.53;3.23;;;20.50;50.20;;;;;;5047155;28;20458;-81
2023/08/06 11:24:54;;;;;;;3.83;3.43;;;20.50;36.90;;;;;;5054740;28;20444;-80
2023/08/06 11:27:21;;;;;;;4.10;3.07;;;20.40;42.40;;;;;;5046992;28;20464;-80
2023/08/06 11:29:48;;;;;;;4.83;2.97;;;20.40;40.40;;;;;;5055351;28;20956;-81
2023/08/06 11:32:16;;;;;;;4.00;3.37;;;20.40;19.90;;;;;;5056285;28;20944;-81
2023/08/06 11:34:44;;;;;;;4.10;3.20;;;20.50;99.90;;;;;;5055843;28;20466;-81
2023/08/06 11:37:11;;;;;;;2.90;2.63;;;20.60;99.90;;;;;;5049861;28;20460;-80
2023/08/06 11:39:39;;;;;;;3.00;2.80;;;20.90;99.90;;;;;;5044035;28;20857;-83
2023/08/06 11:42:07;;;;;;;2.90;2.67;;;21.10;1.80;;;;;;5057700;28;20471;-82
2023/08/06 11:44:36;;;;;;;3.10;2.80;;;21.20;1.00;;;;;;5058403;28;20554;-82
2023/08/06 11:47:05;;;;;;;4.33;3.53;;;21.20;20.60;;;;;;5057922;28;20518;-82
2023/08/06 11:49:40;;;;;;;4.90;3.60;;;21.20;1.00;;;;;;5061738;28;20445;-82
2023/08/06 11:52:14;;;;;;;6.03;4.20;;;21.10;1.00;;;;;;5059306;28;20459;-80
2023/08/06 11:54:40;;;;;;;5.43;4.93;;;21.10;26.90;;;;;;5054409;28;20443;-81
2023/08/06 11:57:07;;;;;;;5.07;4.40;;;21.20;89.80;;;;;;5053392;28;20468;-81
2023/08/06 11:59:35;;;;;;;4.33;3.93;;;21.50;99.90;;;;;;5053489;28;20491;-80
2023/08/06 12:02:05;;;;;;;3.57;3.27;;;21.60;51.50;;;;;;5053638;28;20606;-80
2023/08/06 12:04:32;;;;;;;4.90;3.57;;;21.40;1.00;;;;;;5052496;28;20443;-81
2023/08/06 12:07:08;;;;;;;5.37;4.07;;;21.30;1.00;;;;;;5041393;28;20487;-81
2023/08/06 12:09:37;;;;;;;4.20;3.80;;;20.90;1.00;;;;;;5046905;28;20898;-82
2023/08/06 12:12:05;;;;;;;4.57;4.20;;;20.70;1.00;;;;;;5052730;28;20452;-80
2023/08/06 12:14:32;;;;;;;5.33;4.83;;;20.60;1.90;;;;;;5048197;28;20949;-80
2023/08/06 12:17:00;;;;;;;4.67;4.03;;;20.40;21.80;;;;;;5033256;28;20470;-81
2023/08/06 12:19:26;;;;;;;5.90;4.17;;;20.10;99.90;;;;;;5033321;28;20600;-80
2023/08/06 12:21:53;;;;;;;3.10;2.73;;;19.90;99.90;;;;;;5033503;28;20452;-80
2023/08/06 12:24:21;;;;;;;3.30;2.93;;;19.60;99.90;;;;;;5033026;28;20463;-81
2023/08/06 12:26:48;;;;;;;4.33;2.60;;;19.30;99.90;;;;;;5048823;28;20468;-81
2023/08/06 12:29:15;;;;;;;3.00;2.70;;;18.90;99.90;;;;;;5052627;28;20436;-79
2023/08/06 12:31:42;;;;;;;4.60;3.47;;;18.60;99.90;;;;;;5053970;28;20452;-81
2023/08/06 12:34:08;;;;;;;4.83;4.30;;;18.40;99.90;;;;;;5054044;28;20448;-80
2023/08/06 12:36:35;;;;;;;4.93;4.43;;;18.10;99.90;;;;;;5053551;28;20479;-80
2023/08/06 12:39:02;;;;;;;3.23;2.93;;;18.00;99.90;;;;;;5053695;28;20482;-80
2023/08/06 12:41:30;;;;;;;4.93;3.50;;;17.80;99.90;;;;;;5054378;28;20539;-80
2023/08/06 12:43:57;;;;;;;4.27;3.70;;;17.60;99.90;;;;;;5053307;28;20457;-81
2023/08/06 12:46:23;;;;;;;4.63;3.27;;;17.50;99.90;;;;;;5053071;28;20470;-80
2023/08/06 12:48:50;;;;;;;2.47;2.00;;;17.20;99.90;;;;;;5053458;28;20451;-79
2023/08/06 12:51:17;;;;;;;2.40;2.10;;;17.10;99.90;;;;;;5053542;28;20458;-79